createdAt,value
2022-12-25T00:55:41.132Z,30.58
2022-12-25T00:56:42.098Z,30.65
2022-12-25T00:57:42.092Z,30.67
2022-12-25T04:21:40.310Z,30.57
2022-12-25T04:40:40.131Z,30.54
2022-12-25T04:52:40.041Z,30.53
2022-12-25T04:53:40.017Z,30.50
2022-12-25T04:54:40.031Z,30.54
2022-12-25T04:55:40.021Z,30.54
2022-12-25T04:56:45.359Z,30.51
2022-12-25T04:57:39.983Z,30.56
2022-12-25T04:58:39.968Z,30.54
2022-12-25T04:59:39.974Z,30.54
2022-12-25T05:00:39.951Z,30.54
2022-12-25T05:01:40.047Z,30.54
2022-12-25T05:02:40.187Z,30.57
2022-12-25T05:03:40.194Z,30.54
2022-12-25T05:04:39.919Z,30.57
2022-12-25T05:05:39.921Z,30.57
2022-12-25T05:06:39.899Z,30.57
2022-12-25T05:07:39.895Z,30.58
2022-12-25T05:08:39.917Z,30.53
2022-12-25T05:09:39.889Z,30.54
2022-12-25T05:10:39.872Z,30.51
2022-12-25T05:11:39.883Z,30.50
2022-12-25T05:12:39.851Z,30.58
2022-12-25T05:13:39.839Z,30.51
2022-12-25T05:14:39.824Z,30.51
2022-12-25T05:15:39.943Z,30.54
2022-12-25T05:16:39.810Z,30.54
2022-12-25T05:17:39.802Z,30.51
2022-12-25T05:18:39.795Z,30.56
2022-12-25T05:19:39.786Z,30.56
2022-12-25T05:20:40.530Z,30.54
2022-12-25T05:21:39.772Z,30.51
2022-12-25T05:22:39.759Z,30.50
2022-12-25T05:23:39.748Z,30.51
2022-12-25T05:24:39.742Z,30.49
2022-12-25T05:25:39.765Z,30.58
2022-12-25T05:26:39.727Z,30.49
2022-12-25T05:27:39.739Z,30.54
2022-12-25T05:28:39.722Z,30.54
2022-12-25T05:29:39.735Z,30.51
2022-12-25T05:31:39.725Z,30.57
2022-12-25T05:32:39.670Z,30.50
2022-12-25T05:33:39.662Z,30.47
2022-12-25T17:16:33.661Z,30.40
2022-12-25T22:39:30.610Z,30.13
2022-12-25T23:34:30.116Z,30.13
2022-12-25T23:36:30.098Z,30.14
2022-12-25T23:37:31.055Z,30.14
2022-12-25T23:38:30.080Z,30.17
2022-12-25T23:40:30.066Z,30.13
2022-12-25T23:41:30.052Z,30.10
2022-12-25T23:42:30.046Z,30.11
2022-12-25T23:43:30.040Z,30.18
2022-12-25T23:44:30.073Z,30.14
2022-12-25T23:45:30.024Z,30.14
2022-12-25T23:46:30.086Z,30.13
2022-12-25T23:47:30.000Z,30.18
2022-12-25T23:48:30.000Z,30.13
2022-12-25T23:49:29.983Z,30.13
2022-12-25T23:50:29.971Z,30.16
2022-12-25T23:51:29.990Z,30.14
2022-12-25T23:52:29.954Z,30.17
2022-12-25T23:53:29.954Z,30.13
2022-12-25T23:59:29.893Z,30.14
